Time;durP1;ratioP1;P1;durP2;ratioP2;P2;SDS_P1;SDS_P2;PMS_P1;PMS_P2;Temp;Humidity;BMP_temperature;BMP_pressure;BME280_temperature;BME280_humidity;BME280_pressure;Samples;Min_cycle;Max_cycle;Signal;HPM_P1;HPM_P2
2022/01/30 00:00:31;;;;;;;12.93;4.95;;;6.50;99.90;;;;;;5035341;28;20813;-73
2022/01/30 00:02:56;;;;;;;9.50;3.88;;;6.50;99.90;;;;;;5032990;28;20812;-73
2022/01/30 00:05:22;;;;;;;13.73;4.90;;;6.50;99.90;;;;;;5034118;28;20057;-72
2022/01/30 00:07:48;;;;;;;12.27;4.45;;;6.50;99.90;;;;;;5030606;28;20041;-74
2022/01/30 00:10:14;;;;;;;14.73;5.20;;;6.50;99.90;;;;;;5018245;28;20128;-73
2022/01/30 00:12:47;;;;;;;12.23;3.95;;;6.50;99.90;;;;;;5031182;28;20083;-73
2022/01/30 00:15:15;;;;;;;9.88;5.60;;;6.50;99.90;;;;;;5035952;28;20068;-73
2022/01/30 00:17:47;;;;;;;10.15;4.68;;;6.50;99.90;;;;;;5034544;28;20045;-73
2022/01/30 00:20:20;;;;;;;10.57;3.75;;;6.50;99.90;;;;;;5033957;28;20903;-72
2022/01/30 00:23:08;;;;;;;19.25;5.55;;;6.60;99.90;;;;;;5034078;28;20048;-72
2022/01/30 00:25:43;;;;;;;10.48;4.57;;;6.60;99.90;;;;;;5031007;28;20048;-73
2022/01/30 00:28:12;;;;;;;15.23;5.97;;;6.70;99.90;;;;;;5033762;28;20052;-73
2022/01/30 00:30:37;;;;;;;10.18;4.40;;;6.80;99.90;;;;;;5033453;28;20052;-73
2022/01/30 00:33:04;;;;;;;12.93;4.88;;;6.70;99.90;;;;;;5035001;28;20048;-73
2022/01/30 00:35:33;;;;;;;10.23;4.97;;;6.80;99.90;;;;;;5035198;28;20076;-74
2022/01/30 00:37:58;;;;;;;20.67;6.35;;;6.90;99.90;;;;;;5033533;28;20957;-77
2022/01/30 00:40:24;;;;;;;28.42;6.22;;;6.90;99.90;;;;;;5033314;28;20036;-79
2022/01/30 00:42:50;;;;;;;11.60;4.65;;;6.90;99.90;;;;;;5034609;28;20095;-75
2022/01/30 00:45:15;;;;;;;20.60;7.75;;;6.90;99.90;;;;;;5034720;28;20059;-74
2022/01/30 00:47:41;;;;;;;16.95;6.38;;;6.80;99.90;;;;;;5035145;28;20756;-73
2022/01/30 00:50:07;;;;;;;9.25;3.75;;;6.60;99.90;;;;;;5034861;28;20044;-74
2022/01/30 00:52:32;;;;;;;12.18;3.03;;;6.50;99.90;;;;;;5036896;28;20136;-73
2022/01/30 00:54:58;;;;;;;6.78;2.90;;;6.30;99.90;;;;;;5034065;28;20594;-73
2022/01/30 00:57:23;;;;;;;7.90;3.13;;;6.20;99.90;;;;;;5036615;28;20111;-73
2022/01/30 00:59:49;;;;;;;8.25;3.50;;;6.10;99.90;;;;;;5036445;28;20123;-73
2022/01/30 01:02:18;;;;;;;8.80;4.20;;;6.00;99.90;;;;;;5030791;28;20176;-72
2022/01/30 01:04:44;;;;;;;9.27;4.15;;;6.00;99.90;;;;;;5035825;28;20051;-72
2022/01/30 01:07:17;;;;;;;18.48;5.07;;;6.10;99.90;;;;;;5035928;28;20152;-72
2022/01/30 01:09:50;;;;;;;14.35;4.45;;;6.10;99.90;;;;;;5036318;28;20053;-73
2022/01/30 01:25:47;;;;;;;19.27;4.47;;;6.20;99.90;;;;;;5035529;28;20060;-73
2022/01/30 01:28:13;;;;;;;15.07;4.35;;;6.10;99.90;;;;;;5034085;28;20056;-72
2022/01/30 01:30:38;;;;;;;16.33;4.28;;;6.10;99.90;;;;;;5035835;28;20041;-73
2022/01/30 01:33:05;;;;;;;10.75;5.95;;;6.10;99.90;;;;;;5027979;28;20048;-73
2022/01/30 01:35:31;;;;;;;22.27;5.45;;;6.20;99.90;;;;;;5033399;28;20064;-73
2022/01/30 01:37:57;;;;;;;15.27;6.10;;;6.10;99.90;;;;;;5035416;28;21018;-73
2022/01/30 01:40:22;;;;;;;14.50;4.30;;;6.20;99.90;;;;;;5033963;28;20048;-73
2022/01/30 01:42:48;;;;;;;19.45;6.25;;;6.30;99.90;;;;;;5033145;28;20739;-73
2022/01/30 01:45:21;;;;;;;16.27;5.80;;;6.30;99.90;;;;;;5034350;28;20064;-72
2022/01/30 01:47:47;;;;;;;;;;;6.40;99.90;;;;;;5034486;28;20053;-73
2022/01/30 01:50:27;;;;;;;15.93;4.68;;;6.40;99.90;;;;;;5066853;28;19924;-73
2022/01/30 01:52:53;;;;;;;16.13;5.55;;;6.40;99.90;;;;;;5034347;28;20214;-75
2022/01/30 01:55:19;;;;;;;10.55;5.57;;;6.40;99.90;;;;;;5035043;28;20152;-73
2022/01/30 01:57:44;;;;;;;12.25;4.90;;;6.40;99.90;;;;;;5034655;28;20045;-73
2022/01/30 02:00:10;;;;;;;15.73;5.15;;;6.30;99.90;;;;;;5034585;28;20156;-73
2022/01/30 02:02:36;;;;;;;12.07;4.35;;;6.30;99.90;;;;;;5035387;28;20476;-73
2022/01/30 02:05:04;;;;;;;13.50;4.82;;;6.20;99.90;;;;;;5034557;28;20059;-72
2022/01/30 02:08:14;;;;;;;12.10;5.00;;;6.20;99.90;;;;;;5033425;28;20111;-73
2022/01/30 02:13:36;;;;;;;22.65;5.80;;;6.10;99.90;;;;;;5035595;28;20048;-73
2022/01/30 02:24:20;;;;;;;20.05;6.32;;;6.30;99.90;;;;;;5034094;28;20087;-74
2022/01/30 02:26:47;;;;;;;16.05;4.90;;;6.40;99.90;;;;;;5035449;28;20048;-73
2022/01/30 02:29:12;;;;;;;23.52;7.47;;;6.40;99.90;;;;;;5034242;28;20056;-76
2022/01/30 02:31:40;;;;;;;15.00;6.78;;;6.40;99.90;;;;;;5028860;28;20118;-79
2022/01/30 02:34:07;;;;;;;20.25;7.57;;;6.40;99.90;;;;;;5033255;28;20374;-75
2022/01/30 02:36:32;;;;;;;19.90;7.32;;;6.40;99.90;;;;;;5033432;28;20107;-74
2022/01/30 02:39:00;;;;;;;13.25;5.90;;;6.30;99.90;;;;;;5035198;28;20481;-73
2022/01/30 02:41:26;;;;;;;13.30;5.07;;;6.30;99.90;;;;;;5036271;28;20053;-73
2022/01/30 02:44:09;;;;;;;13.18;5.70;;;6.30;99.90;;;;;;5036084;28;20136;-73
2022/01/30 02:46:39;;;;;;;24.92;6.68;;;6.30;99.90;;;;;;5035612;28;20053;-74
2022/01/30 02:49:24;;;;;;;13.20;5.95;;;6.20;99.90;;;;;;5035104;28;20049;-74
2022/01/30 02:51:58;;;;;;;23.35;7.28;;;6.20;99.90;;;;;;5035850;28;20061;-74
2022/01/30 02:54:26;;;;;;;15.20;7.28;;;6.20;99.90;;;;;;5036570;28;20044;-74
2022/01/30 02:56:52;;;;;;;11.18;5.88;;;6.20;99.90;;;;;;5036895;28;20122;-75
2022/01/30 02:59:17;;;;;;;13.70;6.57;;;6.30;99.90;;;;;;5030502;28;20137;-74
2022/01/30 03:01:43;;;;;;;18.20;7.18;;;6.30;99.90;;;;;;5037435;28;20537;-74
2022/01/30 03:04:09;;;;;;;18.88;7.38;;;6.30;99.90;;;;;;5036342;28;20049;-74
2022/01/30 03:06:36;;;;;;;14.13;5.60;;;6.30;99.90;;;;;;5037842;28;20079;-73
2022/01/30 03:09:03;;;;;;;16.23;7.03;;;6.30;99.90;;;;;;5036382;28;20090;-74
2022/01/30 03:11:29;;;;;;;16.00;5.85;;;6.20;99.90;;;;;;5038330;28;20055;-74
2022/01/30 03:13:55;;;;;;;17.33;7.22;;;6.20;99.90;;;;;;5037475;28;20049;-73
2022/01/30 03:16:23;;;;;;;19.73;7.55;;;6.20;99.90;;;;;;5038329;28;20095;-74
2022/01/30 03:18:50;;;;;;;26.52;8.23;;;6.20;99.90;;;;;;5036753;28;20045;-73
2022/01/30 03:21:16;;;;;;;20.15;7.10;;;6.30;99.90;;;;;;5036088;28;20128;-73
2022/01/30 03:23:41;;;;;;;17.88;6.65;;;6.40;99.90;;;;;;5037445;28;20053;-73
2022/01/30 03:26:09;;;;;;;25.20;7.32;;;6.40;99.90;;;;;;5037626;28;20037;-74
2022/01/30 03:28:35;;;;;;;19.20;5.60;;;6.40;99.90;;;;;;5036846;28;20461;-73
2022/01/30 03:31:05;;;;;;;11.73;6.10;;;6.40;99.90;;;;;;5036805;28;20099;-73
2022/01/30 03:33:30;;;;;;;17.40;6.05;;;6.50;99.90;;;;;;5036675;28;20098;-73
2022/01/30 03:35:56;;;;;;;25.20;6.70;;;6.50;99.90;;;;;;5037038;28;20060;-74
2022/01/30 03:38:22;;;;;;;18.02;6.85;;;6.50;99.90;;;;;;5036321;28;20080;-73
2022/01/30 03:40:48;;;;;;;16.90;5.68;;;6.60;99.90;;;;;;5038115;28;20591;-72
2022/01/30 03:43:15;;;;;;;30.23;6.50;;;6.60;99.90;;;;;;5036099;28;20360;-74
2022/01/30 03:45:41;;;;;;;22.98;7.60;;;6.70;99.90;;;;;;5034507;28;20056;-73
2022/01/30 03:48:07;;;;;;;16.58;6.32;;;6.70;99.90;;;;;;5037264;28;20041;-73
2022/01/30 03:50:34;;;;;;;10.93;6.55;;;6.70;99.90;;;;;;5036519;28;20861;-73
2022/01/30 03:53:00;;;;;;;24.00;6.75;;;6.70;99.90;;;;;;5037147;28;20076;-72
2022/01/30 03:55:25;;;;;;;20.75;7.28;;;6.70;99.90;;;;;;5035259;28;20206;-73
2022/01/30 03:57:51;;;;;;;16.33;7.20;;;6.80;99.90;;;;;;5034807;28;20076;-73
2022/01/30 04:00:17;;;;;;;20.67;8.20;;;6.80;99.90;;;;;;5035961;28;20136;-73
2022/01/30 04:02:43;;;;;;;36.50;7.25;;;6.70;99.90;;;;;;5035364;28;20056;-73
2022/01/30 04:05:08;;;;;;;18.58;7.20;;;6.70;99.90;;;;;;5035258;28;20583;-74
2022/01/30 04:07:35;;;;;;;19.90;7.45;;;6.70;99.90;;;;;;5037310;28;20808;-73
2022/01/30 04:10:00;;;;;;;15.77;7.22;;;6.20;99.90;;;;;;5037319;28;20041;-73
2022/01/30 04:12:26;;;;;;;21.48;6.88;;;6.70;99.90;;;;;;5036558;28;20086;-73
2022/01/30 04:14:52;;;;;;;18.17;7.55;;;6.70;99.90;;;;;;5037553;28;20655;-74
2022/01/30 04:17:22;;;;;;;18.20;7.03;;;6.60;99.90;;;;;;5037783;28;20063;-74
2022/01/30 04:19:48;;;;;;;30.75;7.60;;;6.60;99.90;;;;;;5037965;28;20053;-75
2022/01/30 04:22:14;;;;;;;16.05;8.35;;;6.50;99.90;;;;;;5038406;28;20873;-75
2022/01/30 04:24:40;;;;;;;29.33;8.90;;;6.50;99.90;;;;;;5037478;28;20060;-74
2022/01/30 04:27:05;;;;;;;18.17;5.82;;;6.50;99.90;;;;;;5039916;28;20053;-74
2022/01/30 04:29:31;;;;;;;28.80;9.43;;;6.60;99.90;;;;;;5039380;28;20041;-73
2022/01/30 04:31:57;;;;;;;22.73;7.28;;;6.40;99.90;;;;;;5037551;28;20045;-74
2022/01/30 04:34:24;;;;;;;26.27;10.23;;;6.40;99.90;;;;;;5038038;28;20142;-73
2022/01/30 04:37:00;;;;;;;25.83;7.47;;;6.40;99.90;;;;;;5039471;28;20059;-72
2022/01/30 05:00:33;;;;;;;25.60;7.72;;;6.60;99.90;;;;;;5038200;28;20052;-72
2022/01/30 05:03:25;;;;;;;22.00;7.25;;;6.60;99.90;;;;;;5038702;28;20060;-73
2022/01/30 05:06:02;;;;;;;30.80;7.45;;;6.60;99.90;;;;;;5038015;28;20897;-72
2022/01/30 05:08:28;;;;;;;22.17;8.63;;;6.60;99.90;;;;;;5037516;28;20092;-72
2022/01/30 05:10:54;;;;;;;22.08;10.15;;;6.70;99.90;;;;;;5037931;28;20072;-73
2022/01/30 05:13:27;;;;;;;32.30;10.60;;;6.70;99.90;;;;;;5036862;28;20056;-73
2022/01/30 05:15:53;;;;;;;26.30;10.02;;;6.70;99.90;;;;;;5038273;28;20523;-73
2022/01/30 05:18:27;;;;;;;23.02;10.80;;;6.70;99.90;;;;;;5038679;28;20064;-73
2022/01/30 05:20:53;;;;;;;22.50;8.63;;;6.70;99.90;;;;;;5038016;28;20587;-73
2022/01/30 05:23:19;;;;;;;31.33;11.20;;;6.70;99.90;;;;;;5039011;28;20060;-72
2022/01/30 05:25:46;;;;;;;31.35;8.40;;;6.70;99.90;;;;;;5038174;28;20045;-73
2022/01/30 05:28:14;;;;;;;20.15;7.95;;;6.70;99.90;;;;;;5036198;28;20045;-73
2022/01/30 05:30:40;;;;;;;24.60;7.80;;;6.70;99.90;;;;;;5037180;28;20045;-73
2022/01/30 05:33:05;;;;;;;24.13;8.63;;;6.60;99.90;;;;;;5037440;28;20057;-73
2022/01/30 05:35:31;;;;;;;21.80;7.88;;;6.60;99.90;;;;;;5038429;28;20044;-74
2022/01/30 05:37:57;;;;;;;25.85;9.20;;;6.60;99.90;;;;;;5038592;28;20048;-72
2022/01/30 05:40:23;;;;;;;25.98;9.13;;;6.50;99.90;;;;;;5036935;28;20053;-74
2022/01/30 05:42:49;;;;;;;21.08;8.20;;;6.50;99.90;;;;;;5036246;28;20087;-73
2022/01/30 05:47:47;;;;;;;25.73;8.80;;;6.40;99.90;;;;;;5036768;28;20087;-73
2022/01/30 05:50:13;;;;;;;27.77;7.63;;;6.40;99.90;;;;;;5036129;28;20048;-73
2022/01/30 05:52:39;;;;;;;31.98;8.77;;;6.40;99.90;;;;;;5036875;28;20106;-73
2022/01/30 05:55:05;;;;;;;34.60;10.18;;;6.40;99.90;;;;;;5035126;28;20052;-73
2022/01/30 05:57:30;;;;;;;23.05;8.63;;;6.40;99.90;;;;;;5036503;28;20048;-73
2022/01/30 05:59:56;;;;;;;24.73;8.20;;;6.50;99.90;;;;;;5035802;28;20049;-73
2022/01/30 06:02:21;;;;;;;23.77;9.52;;;6.40;99.90;;;;;;5035348;28;20061;-73
2022/01/30 06:04:47;;;;;;;30.77;9.48;;;6.50;99.90;;;;;;5036779;28;20048;-74
2022/01/30 06:07:13;;;;;;;25.52;8.43;;;6.50;99.90;;;;;;5036049;28;20052;-76
2022/01/30 06:09:38;;;;;;;23.52;8.05;;;6.50;99.90;;;;;;5034340;28;20045;-76
2022/01/30 06:12:05;;;;;;;25.25;9.60;;;6.30;99.90;;;;;;5036856;28;20809;-76
2022/01/30 06:14:31;;;;;;;22.58;7.50;;;6.20;99.90;;;;;;5037599;28;20052;-76
2022/01/30 06:16:56;;;;;;;22.90;9.35;;;6.10;99.90;;;;;;5040443;28;20064;-75
2022/01/30 06:19:22;;;;;;;37.15;9.95;;;6.20;99.90;;;;;;5040895;28;20835;-76
2022/01/30 06:21:49;;;;;;;25.52;9.68;;;6.10;99.90;;;;;;5038863;28;20049;-76
2022/01/30 06:24:14;;;;;;;21.30;9.43;;;6.10;99.90;;;;;;5032556;28;20149;-76
2022/01/30 06:26:40;;;;;;;17.77;9.30;;;6.10;99.90;;;;;;5033180;28;20094;-75
2022/01/30 06:29:06;;;;;;;30.92;11.40;;;6.10;99.90;;;;;;5035662;28;20557;-75
2022/01/30 06:31:31;;;;;;;26.98;7.82;;;6.10;99.90;;;;;;5033242;28;20156;-74
2022/01/30 06:33:57;;;;;;;27.67;8.85;;;6.20;99.90;;;;;;5031461;28;20083;-74
2022/01/30 06:36:22;;;;;;;33.58;9.93;;;6.20;99.90;;;;;;5031399;28;20514;-73
2022/01/30 06:38:49;;;;;;;22.08;8.48;;;6.20;99.90;;;;;;5031042;28;20050;-73
2022/01/30 06:41:14;;;;;;;28.45;10.48;;;6.30;99.90;;;;;;5057527;28;20566;-73
2022/01/30 06:43:40;;;;;;;28.77;7.95;;;6.30;99.90;;;;;;5034497;28;20049;-74
2022/01/30 06:46:06;;;;;;;25.58;9.02;;;6.30;99.90;;;;;;5070717;28;20055;-73
2022/01/30 06:48:32;;;;;;;26.33;9.60;;;6.30;99.90;;;;;;5069935;28;20064;-73
2022/01/30 06:50:57;;;;;;;32.08;9.60;;;6.40;99.90;;;;;;5039103;28;20388;-72
2022/01/30 06:53:24;;;;;;;21.83;10.20;;;6.40;99.90;;;;;;5037680;28;20055;-72
2022/01/30 06:55:51;;;;;;;31.00;9.18;;;6.40;99.90;;;;;;5035873;28;20045;-73
2022/01/30 06:58:16;;;;;;;18.50;7.53;;;6.40;99.90;;;;;;5034177;28;20052;-72
2022/01/30 07:00:42;;;;;;;36.97;9.07;;;6.50;99.90;;;;;;5029486;28;20048;-72
2022/01/30 07:03:08;;;;;;;39.70;9.05;;;6.60;99.90;;;;;;5021349;28;20219;-72
2022/01/30 07:05:33;;;;;;;27.13;7.80;;;6.60;99.90;;;;;;5058094;28;20130;-72
2022/01/30 07:07:59;;;;;;;29.27;11.27;;;6.70;99.90;;;;;;5035829;28;20550;-73
2022/01/30 07:10:25;;;;;;;32.97;8.07;;;6.70;99.90;;;;;;5035603;28;20076;-72
2022/01/30 07:12:51;;;;;;;24.67;9.05;;;6.70;99.90;;;;;;5035978;28;20132;-70
2022/01/30 07:15:16;;;;;;;18.80;8.88;;;6.80;99.90;;;;;;5037755;28;20049;-73
2022/01/30 07:17:42;;;;;;;21.20;8.77;;;6.80;99.90;;;;;;5037078;28;20049;-73
2022/01/30 07:20:09;;;;;;;29.83;8.57;;;6.80;99.90;;;;;;5036471;28;20080;-73
2022/01/30 07:22:35;;;;;;;16.63;7.47;;;6.70;99.90;;;;;;5038746;28;20767;-73
2022/01/30 07:25:02;;;;;;;21.40;9.15;;;6.70;99.90;;;;;;5037212;28;20053;-73
2022/01/30 07:27:28;;;;;;;26.35;7.63;;;6.70;99.90;;;;;;5035496;28;20750;-72
2022/01/30 07:29:54;;;;;;;28.10;9.02;;;6.60;99.90;;;;;;5036971;28;20076;-72
2022/01/30 07:32:20;;;;;;;33.83;11.57;;;6.60;99.90;;;;;;5038483;28;20072;-73
2022/01/30 07:34:49;;;;;;;23.58;11.02;;;6.60;99.90;;;;;;5035525;28;20063;-73
2022/01/30 07:37:15;;;;;;;33.17;8.55;;;6.60;99.90;;;;;;5037982;28;20041;-73
2022/01/30 07:39:41;;;;;;;30.95;11.18;;;6.70;99.90;;;;;;5037122;28;20049;-74
2022/01/30 07:42:07;;;;;;;15.40;7.82;;;6.60;99.90;;;;;;5035166;28;20052;-73
2022/01/30 07:44:33;;;;;;;20.38;6.85;;;6.60;99.90;;;;;;5038073;28;20727;-74
2022/01/30 07:46:58;;;;;;;26.50;8.13;;;6.60;99.90;;;;;;5036498;28;20049;-74
2022/01/30 07:49:24;;;;;;;20.08;6.50;;;6.60;99.90;;;;;;5036005;28;20057;-74
2022/01/30 07:51:49;;;;;;;27.13;8.75;;;6.60;99.90;;;;;;5034422;28;20048;-73
2022/01/30 07:54:15;;;;;;;18.13;7.25;;;6.70;99.90;;;;;;5035913;28;20048;-74
2022/01/30 07:56:41;;;;;;;16.20;6.60;;;6.70;99.90;;;;;;5069558;28;20056;-74
2022/01/30 07:59:06;;;;;;;16.13;6.78;;;6.70;99.90;;;;;;5034247;28;20051;-73
2022/01/30 08:01:32;;;;;;;19.83;7.57;;;6.80;99.90;;;;;;5031708;28;20076;-74
2022/01/30 08:04:00;;;;;;;16.60;6.75;;;6.70;99.90;;;;;;5031143;28;20229;-74
2022/01/30 08:06:26;;;;;;;24.83;6.82;;;6.70;99.90;;;;;;5032889;28;20057;-74
2022/01/30 08:08:51;;;;;;;17.15;6.72;;;6.70;99.20;;;;;;5031504;28;20489;-75
2022/01/30 08:11:17;;;;;;;19.02;6.55;;;6.70;99.90;;;;;;5033763;28;20045;-75
2022/01/30 08:13:43;;;;;;;20.40;7.88;;;6.70;99.90;;;;;;5036359;28;20102;-75
2022/01/30 08:16:08;;;;;;;21.73;7.13;;;6.70;99.90;;;;;;5035250;28;20980;-75
2022/01/30 08:18:37;;;;;;;17.20;6.30;;;6.70;99.90;;;;;;5066720;28;20044;-75
2022/01/30 08:21:04;;;;;;;15.25;6.47;;;6.70;99.90;;;;;;5032456;28;20045;-75
2022/01/30 08:23:31;;;;;;;25.35;9.13;;;6.70;99.90;;;;;;5031353;28;20037;-74
2022/01/30 08:25:57;;;;;;;23.92;8.57;;;6.70;99.90;;;;;;5065306;28;20492;-74
2022/01/30 08:28:22;;;;;;;21.02;8.43;;;6.80;99.90;;;;;;5064585;28;20040;-75
2022/01/30 08:30:48;;;;;;;25.50;8.38;;;6.70;99.90;;;;;;5030727;28;20099;-75
2022/01/30 08:33:16;;;;;;;16.50;7.05;;;6.70;99.90;;;;;;5066047;28;20049;-76
2022/01/30 08:35:41;;;;;;;16.70;6.68;;;6.80;99.90;;;;;;5029832;28;20049;-75
2022/01/30 08:38:07;;;;;;;29.20;10.32;;;6.80;99.90;;;;;;5034374;28;20079;-75
2022/01/30 08:40:32;;;;;;;26.13;7.20;;;6.80;99.90;;;;;;5031030;28;20052;-75
2022/01/30 08:42:58;;;;;;;24.65;9.10;;;6.80;99.90;;;;;;5061026;28;20759;-74
2022/01/30 08:45:24;;;;;;;15.73;7.28;;;6.80;99.90;;;;;;5034133;28;20953;-75
2022/01/30 08:47:51;;;;;;;27.75;8.30;;;6.80;99.90;;;;;;5032494;28;20041;-75
2022/01/30 08:50:19;;;;;;;22.65;9.02;;;6.70;99.90;;;;;;5027428;28;20045;-76
2022/01/30 08:52:45;;;;;;;21.90;8.35;;;6.70;99.90;;;;;;5027472;28;20049;-75
2022/01/30 08:55:12;;;;;;;22.80;6.80;;;6.80;99.90;;;;;;5033437;28;20566;-75
2022/01/30 08:57:38;;;;;;;21.13;7.43;;;6.90;99.90;;;;;;5034445;28;20912;-75
2022/01/30 09:00:07;;;;;;;15.68;6.72;;;7.00;99.90;;;;;;5035172;28;20051;-76
2022/01/30 09:02:33;;;;;;;22.75;7.65;;;7.00;99.90;;;;;;5036102;28;20095;-76
2022/01/30 09:04:58;;;;;;;17.52;7.35;;;7.10;99.90;;;;;;5036088;28;20057;-75
2022/01/30 09:07:24;;;;;;;24.23;6.75;;;7.10;99.90;;;;;;5032506;28;20045;-76
2022/01/30 09:09:49;;;;;;;18.17;7.55;;;7.10;99.90;;;;;;4680930;28;10000373;-76
2022/01/30 09:12:15;;;;;;;16.65;6.32;;;7.10;99.90;;;;;;5026904;28;20047;-77
2022/01/30 09:14:42;;;;;;;17.73;7.68;;;7.00;99.90;;;;;;5058468;28;20059;-76
2022/01/30 09:17:16;;;;;;;24.00;7.93;;;7.00;99.90;;;;;;5031055;28;20873;-75
2022/01/30 09:19:45;;;;;;;23.25;8.60;;;7.00;99.90;;;;;;5054507;28;20049;-76
2022/01/30 09:22:13;;;;;;;25.05;6.45;;;7.00;99.90;;;;;;5022875;28;20483;-76
2022/01/30 09:24:39;;;;;;;31.25;9.82;;;7.00;99.90;;;;;;5060735;28;20041;-76
2022/01/30 09:27:06;;;;;;;21.73;8.82;;;7.10;99.90;;;;;;5029389;28;20072;-75
2022/01/30 09:29:33;;;;;;;21.10;7.10;;;7.10;99.90;;;;;;5026009;28;20049;-75
2022/01/30 09:31:59;;;;;;;22.25;9.63;;;7.20;99.90;;;;;;5030666;28;20053;-80
2022/01/30 09:34:25;;;;;;;35.15;8.93;;;7.20;99.90;;;;;;5028628;28;20044;-75
2022/01/30 09:36:50;;;;;;;26.33;8.68;;;7.20;99.90;;;;;;5029526;28;20130;-76
2022/01/30 09:39:16;;;;;;;21.10;8.45;;;7.30;99.90;;;;;;5025035;28;20176;-75
2022/01/30 09:41:46;;;;;;;19.85;7.95;;;7.30;99.90;;;;;;5026082;28;20045;-74
2022/01/30 09:44:12;;;;;;;21.75;8.32;;;7.40;99.90;;;;;;5028253;28;20057;-73
2022/01/30 09:46:42;;;;;;;22.77;7.60;;;7.40;99.90;;;;;;5024937;28;20057;-74
2022/01/30 09:49:08;;;;;;;21.67;6.20;;;7.40;99.90;;;;;;5060430;28;20045;-73
2022/01/30 09:51:35;;;;;;;29.15;8.93;;;7.50;99.90;;;;;;5026251;28;20647;-74
2022/01/30 09:54:02;;;;;;;27.42;9.10;;;7.50;99.30;;;;;;5030085;28;20037;-75
2022/01/30 09:56:28;;;;;;;18.15;6.68;;;7.50;99.30;;;;;;5026712;28;20191;-74
2022/01/30 09:58:53;;;;;;;20.05;7.40;;;7.60;99.70;;;;;;5028242;28;20945;-74
2022/01/30 10:01:19;;;;;;;17.27;6.35;;;7.70;99.30;;;;;;5028265;28;20711;-74
2022/01/30 10:03:47;;;;;;;18.88;5.93;;;7.80;99.20;;;;;;5030186;28;20033;-74
2022/01/30 10:06:18;;;;;;;24.08;7.03;;;7.80;98.80;;;;;;5063330;28;20132;-74
2022/01/30 10:08:46;;;;;;;18.92;6.68;;;7.80;99.00;;;;;;5061111;28;20048;-74
2022/01/30 10:11:29;;;;;;;17.20;6.20;;;7.80;99.20;;;;;;5029327;28;20045;-74
2022/01/30 10:14:06;;;;;;;20.73;8.27;;;7.80;98.20;;;;;;5028935;28;20045;-74
2022/01/30 10:16:40;;;;;;;17.95;8.38;;;7.90;98.00;;;;;;5022433;28;20179;-74
2022/01/30 10:19:24;;;;;;;16.00;7.25;;;7.90;98.00;;;;;;5028067;28;20045;-74
2022/01/30 10:22:03;;;;;;;19.98;7.90;;;7.90;98.80;;;;;;5028267;28;20107;-73
2022/01/30 10:24:29;;;;;;;20.52;10.55;;;7.80;99.00;;;;;;5028515;28;20809;-74
2022/01/30 10:26:59;;;;;;;15.85;6.10;;;7.80;99.90;;;;;;5029221;28;20077;-75
2022/01/30 10:29:30;;;;;;;17.58;7.60;;;7.80;99.50;;;;;;5066838;28;20046;-73
2022/01/30 10:32:06;;;;;;;23.65;8.52;;;7.80;99.90;;;;;;5067743;28;20742;-71
2022/01/30 10:34:33;;;;;;;22.42;8.13;;;7.80;99.30;;;;;;5035148;28;20049;-72
2022/01/30 10:37:36;;;;;;;28.23;8.25;;;7.80;98.90;;;;;;5030815;28;20045;-74
2022/01/30 10:40:09;;;;;;;24.65;8.10;;;7.90;99.60;;;;;;4996023;28;20111;-75
2022/01/30 10:42:46;;;;;;;22.33;8.35;;;7.90;99.90;;;;;;5022927;28;20076;-74
2022/01/30 10:45:25;;;;;;;25.52;9.75;;;8.00;99.80;;;;;;5027105;28;20064;-74
2022/01/30 10:48:16;;;;;;;19.23;7.28;;;8.00;99.90;;;;;;5030327;28;20151;-73
2022/01/30 10:50:44;;;;;;;25.77;9.63;;;8.00;99.90;;;;;;5029961;28;20045;-73
2022/01/30 10:53:21;;;;;;;15.82;7.15;;;7.90;99.90;;;;;;5028085;28;20053;-74
2022/01/30 10:55:48;;;;;;;16.70;5.93;;;7.90;99.90;;;;;;5031895;28;20366;-73
2022/01/30 10:58:19;;;;;;;15.82;7.63;;;7.70;99.90;;;;;;5032574;28;20044;-75
2022/01/30 11:00:46;;;;;;;24.35;9.15;;;7.70;99.90;;;;;;5035653;28;20471;-74
2022/01/30 11:03:36;;;;;;;29.83;7.28;;;7.40;99.90;;;;;;5037805;28;20049;-74
2022/01/30 11:06:02;;;;;;;14.70;7.20;;;7.60;99.10;;;;;;5036711;28;20045;-74
2022/01/30 11:08:33;;;;;;;32.65;9.40;;;7.60;99.90;;;;;;5037917;28;20875;-74
2022/01/30 11:11:38;;;;;;;21.67;6.97;;;7.70;99.90;;;;;;5036470;28;20060;-74
2022/01/30 11:14:13;;;;;;;22.45;7.10;;;7.80;99.90;;;;;;5034467;28;20499;-74
2022/01/30 11:16:57;;;;;;;15.93;7.32;;;7.80;99.90;;;;;;5069870;28;20138;-74
2022/01/30 11:19:23;;;;;;;22.17;7.05;;;7.80;97.50;;;;;;5037245;28;20045;-72
2022/01/30 11:21:58;;;;;;;14.77;5.65;;;7.80;97.00;;;;;;5033397;28;20044;-74
2022/01/30 11:24:25;;;;;;;20.17;5.75;;;7.80;99.30;;;;;;5032705;28;20049;-75
2022/01/30 11:26:51;;;;;;;21.80;6.22;;;7.80;98.80;;;;;;5031669;28;20032;-74
2022/01/30 11:29:21;;;;;;;19.35;6.95;;;7.80;98.40;;;;;;5031060;28;20704;-75
2022/01/30 11:31:47;;;;;;;16.67;6.57;;;7.80;98.60;;;;;;5034692;28;20087;-74
2022/01/30 11:34:14;;;;;;;29.60;9.10;;;7.80;99.10;;;;;;5033801;28;20053;-74
2022/01/30 11:36:42;;;;;;;21.48;6.93;;;7.80;99.40;;;;;;5066989;28;20114;-73
2022/01/30 11:39:12;;;;;;;17.25;6.30;;;7.80;98.90;;;;;;5034296;28;20768;-75
2022/01/30 11:41:38;;;;;;;13.77;6.38;;;7.90;99.90;;;;;;5033522;28;20052;-74
2022/01/30 11:44:19;;;;;;;24.02;7.68;;;7.80;99.90;;;;;;5030394;28;20052;-75
2022/01/30 11:46:58;;;;;;;23.08;7.28;;;7.80;99.10;;;;;;5034959;28;20053;-74
2022/01/30 11:49:45;;;;;;;23.02;7.68;;;7.80;99.90;;;;;;5064624;28;20072;-74
2022/01/30 11:52:12;;;;;;;14.77;5.82;;;7.80;99.70;;;;;;5033639;28;20045;-75
2022/01/30 11:54:41;;;;;;;14.65;5.90;;;7.80;99.90;;;;;;5035538;28;20146;-75
2022/01/30 11:57:22;;;;;;;27.48;6.57;;;7.90;99.90;;;;;;5034381;28;20045;-75
2022/01/30 11:59:49;;;;;;;21.73;7.40;;;7.80;99.90;;;;;;5035809;28;20140;-75
2022/01/30 12:02:47;;;;;;;16.98;6.00;;;7.90;99.90;;;;;;5035218;28;20148;-75
2022/01/30 12:05:12;;;;;;;21.00;7.82;;;7.90;99.90;;;;;;5045188;28;20059;-74
2022/01/30 12:07:38;;;;;;;19.77;6.28;;;7.90;99.90;;;;;;5034916;28;20049;-74
2022/01/30 12:10:27;;;;;;;26.05;8.93;;;8.00;99.90;;;;;;5031634;28;20068;-74
2022/01/30 12:12:56;;;;;;;25.17;7.00;;;7.90;99.90;;;;;;5030757;28;20057;-74
2022/01/30 12:15:45;;;;;;;18.48;6.55;;;8.00;99.90;;;;;;5030350;28;20416;-74
2022/01/30 12:18:13;;;;;;;20.30;5.88;;;8.00;99.90;;;;;;5033571;28;20045;-75
2022/01/30 12:20:59;;;;;;;20.38;7.43;;;8.10;99.90;;;;;;5027448;28;20148;-74
2022/01/30 12:23:39;;;;;;;18.92;7.38;;;8.20;99.90;;;;;;5026897;28;20065;-73
2022/01/30 12:26:10;;;;;;;16.38;6.53;;;8.20;99.90;;;;;;5035253;28;20045;-81
2022/01/30 12:28:53;;;;;;;23.65;7.75;;;8.10;99.90;;;;;;5067984;28;20849;-74
2022/01/30 12:31:23;;;;;;;;;;;8.10;99.90;;;;;;5068193;28;20691;-74
2022/01/30 12:33:56;;;;;;;20.38;6.43;;;8.10;99.90;;;;;;5034517;28;20043;-74
2022/01/30 12:36:22;;;;;;;18.98;7.50;;;8.20;99.90;;;;;;5034723;28;20056;-74
2022/01/30 12:38:53;;;;;;;24.63;7.13;;;8.40;99.90;;;;;;5032605;28;20040;-74
2022/01/30 12:41:22;;;;;;;22.20;9.80;;;8.30;99.90;;;;;;5033487;28;20056;-74
2022/01/30 12:43:54;;;;;;;21.33;7.35;;;8.30;99.90;;;;;;5030668;28;20064;-74
2022/01/30 12:46:23;;;;;;;23.13;7.90;;;8.20;99.90;;;;;;5035320;28;20049;-75
2022/01/30 12:49:03;;;;;;;18.13;7.95;;;8.10;99.90;;;;;;5031656;28;20830;-74
2022/01/30 12:51:29;;;;;;;27.52;7.80;;;8.00;99.70;;;;;;5061875;28;20060;-74
2022/01/30 12:53:56;;;;;;;17.42;7.03;;;7.90;99.80;;;;;;5032044;28;20052;-74
2022/01/30 12:56:23;;;;;;;22.65;8.23;;;7.80;99.60;;;;;;5031067;28;20037;-74
2022/01/30 12:58:51;;;;;;;12.07;6.07;;;7.70;99.90;;;;;;5030602;28;20048;-74
2022/01/30 13:01:17;;;;;;;22.55;6.53;;;7.60;99.90;;;;;;5064852;28;20041;-74
2022/01/30 13:03:43;;;;;;;21.20;7.32;;;7.50;99.90;;;;;;5064205;28;20956;-73
2022/01/30 13:06:09;;;;;;;20.13;6.95;;;7.50;99.90;;;;;;5064373;28;20061;-73
2022/01/30 13:08:53;;;;;;;16.33;8.30;;;7.50;99.90;;;;;;5031640;28;20072;-74
2022/01/30 13:11:22;;;;;;;17.50;7.22;;;7.50;99.90;;;;;;5030634;28;20059;-74
2022/01/30 13:14:13;;;;;;;25.95;5.70;;;7.50;99.90;;;;;;5029566;28;20042;-73
2022/01/30 13:16:44;;;;;;;17.70;6.97;;;7.60;99.90;;;;;;5029527;28;20118;-73
2022/01/30 13:19:13;;;;;;;24.70;6.10;;;7.60;99.80;;;;;;5031363;28;20079;-74
2022/01/30 13:21:43;;;;;;;15.65;5.90;;;7.60;99.90;;;;;;5031213;28;20102;-73
2022/01/30 13:24:09;;;;;;;13.13;5.47;;;7.60;99.20;;;;;;5026411;28;20061;-74
2022/01/30 13:26:37;;;;;;;28.73;8.57;;;7.60;98.40;;;;;;5067054;28;20583;-74
2022/01/30 13:29:08;;;;;;;15.88;5.88;;;7.50;98.20;;;;;;5067737;28;20152;-74
2022/01/30 13:31:35;;;;;;;19.58;7.15;;;7.50;99.50;;;;;;5034616;28;20723;-74
2022/01/30 13:34:21;;;;;;;14.15;7.00;;;7.40;99.90;;;;;;5031219;28;20041;-74
2022/01/30 13:36:55;;;;;;;29.73;8.73;;;7.50;99.90;;;;;;5022401;28;20140;-73
2022/01/30 13:39:32;;;;;;;29.75;7.07;;;7.50;99.90;;;;;;5031077;28;20878;-74
2022/01/30 13:42:32;;;;;;;21.15;7.35;;;7.40;99.70;;;;;;5025362;28;20144;-73
2022/01/30 13:47:53;;;;;;;21.75;7.70;;;7.50;99.90;;;;;;5031073;28;20083;-72